North Little Rock, Arkansas
Current Conditions -  °F | °C
As of 2:53 PM on Friday 28 Nov 2014 (Local Time) from KLIT Reporting Station
Clear Clear  
Wind Chill: 59°   Ceiling: Unl
Heat Index: 59°   Visibility: 10mi
Dew Point: 32°   Wind: 13mph
Humidity: 36%   Direction: 170°S
Pressure: 30.14"   Gusts: NA
Location:  34.76°N, 92.27°W
Report Text: KLIT 282053Z 17011KT 10SM CLR 15/00 A3014 RMK AO2 SLP209 60001 T01500000 56040
Loading
Personal Weather Stations






























Interactive Weather Map New forecast layout! Learn more

10-Day Weather Forecast

Advertisements
Track Severe Weather on mobile